createdAt,value
2019-02-28T00:00:11.184Z,6.90
2019-02-28T00:02:37.354Z,6.90
2019-02-28T00:05:06.125Z,6.90
2019-02-28T00:07:41.535Z,6.90
2019-02-28T00:10:16.977Z,6.90
2019-02-28T00:12:45.205Z,6.80
2019-02-28T00:15:11.506Z,6.80
2019-02-28T00:17:42.570Z,6.80
2019-02-28T00:20:07.363Z,6.70
2019-02-28T00:22:33.535Z,6.80
2019-02-28T00:25:01.097Z,6.80
2019-02-28T00:27:27.820Z,6.70
2019-02-28T00:29:54.007Z,6.80
2019-02-28T00:32:21.437Z,6.90
2019-02-28T00:34:51.079Z,6.80
2019-02-28T00:37:20.024Z,6.70
2019-02-28T00:39:46.209Z,6.70
2019-02-28T00:42:17.373Z,6.70
2019-02-28T00:44:40.970Z,6.70
2019-02-28T00:47:07.147Z,6.60
2019-02-28T00:49:51.986Z,6.60
2019-02-28T00:52:18.159Z,6.50
2019-02-28T00:54:44.566Z,6.50
2019-02-28T00:57:10.838Z,6.40
2019-02-28T00:59:37.014Z,6.40
2019-02-28T01:02:06.075Z,6.40
2019-02-28T01:04:32.332Z,6.40
2019-02-28T01:06:58.504Z,6.40
2019-02-28T01:09:27.078Z,6.40
2019-02-28T01:11:52.933Z,6.40
2019-02-28T01:14:19.172Z,6.30
2019-02-28T01:16:45.407Z,6.30
2019-02-28T01:19:11.593Z,6.20
2019-02-28T01:21:40.324Z,6.20
2019-02-28T01:24:06.591Z,6.20
2019-02-28T01:26:32.783Z,6.20
2019-02-28T01:29:01.889Z,6.10
2019-02-28T01:31:27.368Z,6.00
2019-02-28T01:33:58.735Z,5.90
2019-02-28T01:36:24.314Z,5.90
2019-02-28T01:38:50.577Z,5.90
2019-02-28T01:41:16.786Z,5.90
2019-02-28T01:43:42.973Z,5.90
2019-02-28T01:46:09.168Z,5.80
2019-02-28T01:48:35.346Z,5.80
2019-02-28T01:51:01.768Z,5.70
2019-02-28T01:53:28.050Z,5.70
2019-02-28T01:55:54.233Z,5.60
2019-02-28T01:58:20.494Z,5.60
2019-02-28T02:00:46.676Z,5.70
2019-02-28T02:03:12.886Z,5.60
2019-02-28T02:05:51.674Z,5.60
2019-02-28T02:08:18.708Z,5.60
2019-02-28T02:10:44.905Z,5.60
2019-02-28T02:13:11.104Z,5.50
2019-02-28T02:15:37.294Z,5.50
2019-02-28T02:18:06.330Z,5.50
2019-02-28T02:20:34.520Z,5.40
2019-02-28T02:23:00.686Z,5.40
2019-02-28T02:25:26.850Z,5.40
2019-02-28T02:27:53.984Z,5.30
2019-02-28T02:30:21.998Z,5.30
2019-02-28T02:32:48.302Z,5.30
2019-02-28T02:35:17.251Z,5.20
2019-02-28T02:37:43.443Z,5.20
2019-02-28T02:40:12.730Z,5.20
2019-02-28T02:42:38.907Z,5.20
2019-02-28T02:45:07.296Z,5.20
2019-02-28T02:47:36.343Z,5.20
2019-02-28T02:50:05.120Z,5.20
2019-02-28T02:52:31.365Z,5.20
2019-02-28T02:54:57.581Z,5.20
2019-02-28T02:57:23.764Z,5.20
2019-02-28T03:00:15.081Z,5.20
2019-02-28T03:02:41.620Z,5.30
2019-02-28T03:05:08.177Z,5.30
2019-02-28T03:07:34.487Z,5.40
2019-02-28T03:10:06.223Z,5.30
2019-02-28T03:12:32.992Z,5.20
2019-02-28T03:14:59.303Z,5.20
2019-02-28T03:17:25.515Z,5.20
2019-02-28T03:19:51.752Z,5.30
2019-02-28T03:22:17.926Z,5.20
2019-02-28T03:24:51.127Z,5.20
2019-02-28T03:27:20.959Z,5.10
2019-02-28T03:29:47.258Z,5.10
2019-02-28T03:32:13.542Z,5.10
2019-02-28T03:34:39.788Z,5.10
2019-02-28T03:37:05.993Z,5.10
2019-02-28T03:39:38.587Z,5.10
2019-02-28T03:42:05.042Z,5.00
2019-02-28T03:44:31.209Z,5.00
2019-02-28T03:46:57.427Z,5.00
2019-02-28T03:49:23.604Z,5.00
2019-02-28T03:51:52.946Z,4.90
2019-02-28T03:54:19.235Z,4.80
2019-02-28T03:56:52.715Z,4.80
2019-02-28T03:59:18.796Z,4.80
2019-02-28T04:01:46.427Z,4.70
2019-02-28T04:04:12.853Z,4.70
2019-02-28T04:06:40.845Z,4.70
2019-02-28T04:09:08.459Z,4.70
2019-02-28T04:11:35.328Z,4.70
2019-02-28T04:14:01.486Z,4.80
2019-02-28T04:16:27.678Z,4.80
2019-02-28T04:18:53.861Z,4.90
2019-02-28T04:21:22.846Z,5.00
2019-02-28T04:23:49.133Z,5.10
2019-02-28T04:26:15.324Z,5.20
2019-02-28T04:28:41.510Z,5.30
2019-02-28T04:31:07.769Z,5.30
2019-02-28T04:33:37.687Z,5.20
2019-02-28T04:36:02.082Z,5.10
2019-02-28T04:38:28.347Z,5.10
2019-02-28T04:40:54.546Z,5.10
2019-02-28T04:43:20.762Z,5.10
2019-02-28T04:45:46.912Z,5.10
2019-02-28T04:48:13.992Z,5.20
2019-02-28T04:50:40.885Z,5.10
2019-02-28T04:53:07.211Z,5.00
2019-02-28T04:55:34.243Z,5.00
2019-02-28T04:58:01.684Z,5.00
2019-02-28T05:00:27.902Z,5.00
2019-02-28T05:02:55.020Z,4.90
2019-02-28T05:05:21.319Z,4.90
2019-02-28T05:07:47.524Z,4.80
2019-02-28T05:10:13.787Z,4.80
2019-02-28T05:12:42.832Z,4.80
2019-02-28T05:15:13.132Z,4.80
2019-02-28T05:17:39.326Z,4.80
2019-02-28T05:20:10.750Z,4.70
2019-02-28T05:22:35.556Z,4.70
2019-02-28T05:25:20.015Z,4.70
2019-02-28T05:27:46.255Z,4.60
2019-02-28T05:30:18.119Z,4.60
2019-02-28T05:32:53.803Z,4.50
2019-02-28T05:35:25.556Z,4.60
2019-02-28T05:37:51.311Z,4.60
2019-02-28T05:40:17.470Z,4.50
2019-02-28T05:42:43.671Z,4.50
2019-02-28T05:45:11.403Z,4.40
2019-02-28T05:47:46.394Z,4.40
2019-02-28T05:50:08.678Z,4.40
2019-02-28T05:52:34.852Z,4.30
2019-02-28T05:55:01.027Z,4.20
2019-02-28T05:57:27.196Z,4.20
2019-02-28T05:59:53.446Z,4.10
2019-02-28T06:02:22.349Z,4.10
2019-02-28T06:04:48.151Z,4.10
2019-02-28T06:07:14.456Z,4.10
2019-02-28T06:09:45.563Z,4.10
2019-02-28T06:12:11.547Z,4.10
2019-02-28T06:14:37.744Z,4.10
2019-02-28T06:17:04.004Z,4.10
2019-02-28T06:19:30.488Z,4.10
2019-02-28T06:21:59.437Z,4.10
2019-02-28T06:24:25.084Z,4.20
2019-02-28T06:26:51.372Z,4.20
2019-02-28T06:29:17.654Z,4.10
2019-02-28T06:31:45.469Z,4.10
2019-02-28T06:34:24.148Z,4.10
2019-02-28T06:36:50.433Z,4.00
2019-02-28T06:39:17.559Z,4.10
2019-02-28T06:41:43.903Z,4.10
2019-02-28T06:44:27.033Z,4.10
2019-02-28T06:46:53.970Z,4.10
2019-02-28T06:49:20.357Z,4.20
2019-02-28T06:51:48.417Z,4.30
2019-02-28T06:54:17.699Z,4.30
2019-02-28T06:56:50.216Z,4.30
2019-02-28T06:59:16.445Z,4.40
2019-02-28T07:01:42.659Z,4.30
2019-02-28T07:04:11.519Z,4.40
2019-02-28T07:06:37.090Z,4.30
2019-02-28T07:09:04.913Z,4.40
2019-02-28T07:11:31.116Z,4.40
2019-02-28T07:13:57.303Z,4.50
2019-02-28T07:16:23.652Z,4.50
2019-02-28T07:18:52.951Z,4.60
2019-02-28T07:21:18.097Z,4.60
2019-02-28T07:23:44.325Z,4.70
2019-02-28T07:26:10.521Z,4.80
2019-02-28T07:28:37.704Z,4.90
2019-02-28T07:31:07.065Z,4.90
2019-02-28T07:33:36.271Z,5.00
2019-02-28T07:36:05.598Z,5.00
2019-02-28T07:38:33.606Z,5.10
2019-02-28T07:40:59.811Z,5.20
2019-02-28T07:43:28.847Z,5.20
2019-02-28T07:45:55.025Z,5.30
2019-02-28T07:48:26.811Z,5.30
2019-02-28T07:50:52.110Z,5.40
2019-02-28T07:53:18.308Z,5.50
2019-02-28T07:55:44.498Z,5.50
2019-02-28T07:58:10.688Z,5.50
2019-02-28T08:00:37.085Z,5.50
2019-02-28T08:03:03.345Z,5.50
2019-02-28T08:05:31.004Z,5.60
2019-02-28T08:08:15.975Z,5.50
2019-02-28T08:10:42.305Z,5.60
2019-02-28T08:13:11.412Z,5.60
2019-02-28T08:15:37.632Z,5.70
2019-02-28T08:18:06.748Z,5.80
2019-02-28T08:20:34.008Z,5.90
2019-02-28T08:23:04.831Z,6.00
2019-02-28T08:25:31.083Z,6.10
2019-02-28T08:27:59.798Z,6.20
2019-02-28T08:30:32.886Z,6.30
2019-02-28T08:32:59.084Z,6.40
2019-02-28T08:35:25.386Z,6.50
2019-02-28T08:37:55.693Z,6.70
2019-02-28T08:40:21.188Z,6.80
2019-02-28T08:42:49.721Z,6.90
2019-02-28T08:45:15.878Z,7.00
2019-02-28T08:47:44.941Z,7.10
2019-02-28T08:50:19.473Z,7.20
2019-02-28T08:52:56.633Z,7.30
2019-02-28T08:55:28.767Z,7.30
2019-02-28T08:57:54.994Z,7.40
2019-02-28T09:00:20.555Z,7.60
2019-02-28T09:02:52.218Z,7.80
2019-02-28T09:05:17.821Z,7.80
2019-02-28T09:07:50.951Z,7.90
2019-02-28T09:10:28.215Z,8.10
2019-02-28T09:12:54.526Z,8.10
2019-02-28T09:15:21.021Z,8.20
2019-02-28T09:17:50.088Z,8.30
2019-02-28T09:20:16.591Z,8.40
2019-02-28T09:22:43.187Z,8.40
2019-02-28T09:25:21.432Z,8.40
2019-02-28T09:28:02.447Z,8.50
2019-02-28T09:30:41.153Z,8.60
2019-02-28T09:33:23.259Z,8.60
2019-02-28T09:35:48.099Z,8.60
2019-02-28T09:38:14.348Z,8.70
2019-02-28T09:40:41.239Z,8.90
2019-02-28T09:43:07.863Z,9.10
2019-02-28T09:45:34.172Z,9.30
2019-02-28T09:48:03.587Z,9.40
2019-02-28T09:50:29.988Z,9.60
2019-02-28T09:52:56.194Z,9.70
2019-02-28T09:55:22.455Z,9.80
2019-02-28T09:57:53.724Z,9.80
2019-02-28T10:00:18.582Z,9.80
2019-02-28T10:02:45.105Z,10.00
2019-02-28T10:05:14.359Z,10.10
2019-02-28T10:07:40.902Z,10.10
2019-02-28T10:10:23.890Z,10.10
2019-02-28T10:12:52.947Z,10.10
2019-02-28T10:15:20.486Z,10.00
2019-02-28T10:17:46.660Z,10.00
2019-02-28T10:20:16.482Z,10.00
2019-02-28T10:22:44.402Z,10.00
2019-02-28T10:25:12.411Z,10.10
2019-02-28T10:28:01.612Z,10.10
2019-02-28T10:30:32.290Z,10.20
2019-02-28T10:32:56.682Z,10.40
2019-02-28T10:35:22.890Z,10.50
2019-02-28T10:37:49.444Z,10.60
2019-02-28T10:40:23.351Z,10.70
2019-02-28T10:42:51.624Z,10.80
2019-02-28T10:45:18.310Z,10.80
2019-02-28T10:47:47.090Z,10.70
2019-02-28T10:50:19.884Z,10.70
2019-02-28T10:52:48.703Z,10.90
2019-02-28T10:55:15.783Z,11.00
2019-02-28T10:57:42.112Z,11.10
2019-02-28T11:00:14.253Z,11.30
2019-02-28T11:02:41.365Z,11.30
2019-02-28T11:05:15.344Z,11.40
2019-02-28T11:07:42.203Z,11.50
2019-02-28T11:10:08.904Z,11.60
2019-02-28T11:12:37.364Z,11.80
2019-02-28T11:15:23.010Z,11.90
2019-02-28T11:17:49.658Z,12.00
2019-02-28T11:20:22.058Z,12.10
2019-02-28T11:22:46.792Z,12.10
2019-02-28T11:25:15.580Z,12.00
2019-02-28T11:27:53.689Z,12.00
2019-02-28T11:30:29.596Z,11.90
2019-02-28T11:33:03.324Z,12.10
2019-02-28T11:35:27.803Z,12.30
2019-02-28T11:37:54.215Z,12.40
2019-02-28T11:40:23.592Z,12.40
2019-02-28T11:42:52.365Z,12.40
2019-02-28T11:45:27.894Z,12.40
2019-02-28T11:47:56.137Z,12.60
2019-02-28T11:50:42.448Z,12.80
2019-02-28T11:53:09.273Z,12.90
2019-02-28T11:55:38.572Z,13.00
2019-02-28T11:58:07.825Z,13.10
2019-02-28T12:00:38.317Z,13.30
2019-02-28T12:03:07.658Z,13.30
2019-02-28T12:05:50.678Z,13.30
2019-02-28T12:08:17.671Z,13.40
2019-02-28T12:10:43.901Z,13.40
2019-02-28T12:13:10.294Z,13.40
2019-02-28T12:15:39.272Z,13.40
2019-02-28T12:18:05.886Z,13.30
2019-02-28T12:20:32.056Z,13.20
2019-02-28T12:22:58.331Z,13.20
2019-02-28T12:25:27.618Z,13.20
2019-02-28T12:28:06.509Z,13.10
2019-02-28T12:30:33.577Z,13.10
2019-02-28T12:33:00.090Z,13.10
2019-02-28T12:35:37.274Z,13.00
2019-02-28T12:38:03.282Z,12.90
2019-02-28T12:40:34.347Z,12.80
2019-02-28T12:43:05.292Z,12.70
2019-02-28T12:45:49.364Z,12.60
2019-02-28T12:48:30.752Z,12.70
2019-02-28T12:50:57.362Z,12.80
2019-02-28T12:53:25.268Z,12.90
2019-02-28T12:56:07.327Z,13.00
2019-02-28T12:58:38.845Z,13.00
2019-02-28T13:01:20.574Z,13.00
2019-02-28T13:03:46.842Z,13.10
2019-02-28T13:06:13.198Z,13.20
2019-02-28T13:08:42.501Z,13.30
2019-02-28T13:11:08.829Z,13.30
2019-02-28T13:13:37.979Z,13.50
2019-02-28T13:16:04.317Z,13.70
2019-02-28T13:18:33.464Z,13.90
2019-02-28T13:21:06.157Z,14.30
2019-02-28T13:23:34.071Z,14.50
2019-02-28T13:26:00.380Z,14.70
2019-02-28T13:28:26.562Z,14.90
2019-02-28T13:30:52.939Z,15.10
2019-02-28T13:33:19.295Z,15.10
2019-02-28T13:35:47.416Z,15.20
2019-02-28T13:38:17.705Z,15.50
2019-02-28T13:40:44.841Z,15.70
2019-02-28T13:43:10.014Z,16.20
2019-02-28T13:45:36.318Z,16.50
2019-02-28T13:48:03.567Z,16.40
2019-02-28T13:50:35.687Z,16.30
2019-02-28T13:53:23.265Z,17.30
2019-02-28T13:55:52.941Z,19.30
2019-02-28T13:58:17.610Z,21.00
2019-02-28T14:00:45.962Z,22.10
2019-02-28T14:03:16.993Z,22.50
2019-02-28T14:05:43.318Z,22.80
2019-02-28T14:08:21.961Z,23.10
2019-02-28T14:10:49.122Z,23.00
2019-02-28T14:13:16.320Z,22.80
2019-02-28T14:15:52.497Z,22.80
2019-02-28T14:18:31.147Z,23.00
2019-02-28T14:20:59.492Z,22.60
2019-02-28T14:23:25.704Z,22.20
2019-02-28T14:25:51.964Z,22.00
2019-02-28T14:28:20.873Z,21.60
2019-02-28T14:30:47.285Z,21.50
2019-02-28T14:33:16.202Z,21.40
2019-02-28T14:35:47.204Z,21.50
2019-02-28T14:38:32.796Z,21.60
2019-02-28T14:41:00.043Z,21.90
2019-02-28T14:43:29.039Z,21.70
2019-02-28T14:45:55.275Z,21.30
2019-02-28T14:48:21.504Z,20.90
2019-02-28T14:50:50.546Z,20.30
2019-02-28T14:53:18.354Z,19.90
2019-02-28T14:56:04.375Z,19.30
2019-02-28T14:58:46.176Z,18.30
2019-02-28T15:01:16.840Z,17.60
2019-02-28T15:03:43.755Z,17.30
2019-02-28T15:06:11.217Z,17.00
2019-02-28T15:08:55.960Z,16.80
2019-02-28T15:11:22.360Z,16.70
2019-02-28T15:14:08.756Z,16.50
2019-02-28T15:16:35.456Z,16.10
2019-02-28T15:19:01.640Z,16.10
2019-02-28T15:21:27.846Z,16.00
2019-02-28T15:23:54.029Z,15.80
2019-02-28T15:26:20.252Z,15.60
2019-02-28T15:28:48.613Z,15.30
2019-02-28T15:31:15.044Z,15.20
2019-02-28T15:33:44.188Z,15.20
2019-02-28T15:36:16.923Z,15.20
2019-02-28T15:38:44.481Z,15.20
2019-02-28T15:41:11.393Z,15.20
2019-02-28T15:43:37.587Z,15.10
2019-02-28T15:46:04.098Z,15.00
2019-02-28T15:48:35.219Z,14.90
2019-02-28T15:51:03.396Z,14.90
2019-02-28T15:53:29.819Z,14.90
2019-02-28T15:55:56.022Z,14.70
2019-02-28T15:58:24.923Z,14.70
2019-02-28T16:00:53.770Z,14.60
2019-02-28T16:03:37.744Z,14.50
2019-02-28T16:06:03.922Z,14.50
2019-02-28T16:08:30.260Z,14.50
2019-02-28T16:10:56.526Z,14.50
2019-02-28T16:13:25.864Z,14.20
2019-02-28T16:15:51.243Z,14.10
2019-02-28T16:18:17.476Z,14.00
2019-02-28T16:20:43.739Z,14.00
2019-02-28T16:23:10.006Z,13.90
2019-02-28T16:25:37.377Z,14.00
2019-02-28T16:28:07.683Z,14.00
2019-02-28T16:30:35.561Z,13.90
2019-02-28T16:33:04.740Z,14.00
2019-02-28T16:35:33.510Z,13.80
2019-02-28T16:37:59.740Z,13.80
2019-02-28T16:40:28.919Z,13.70
2019-02-28T16:42:55.140Z,13.50
2019-02-28T16:45:28.034Z,13.20
2019-02-28T16:47:55.625Z,13.10
2019-02-28T16:50:22.593Z,13.10
2019-02-28T16:52:48.777Z,13.20
2019-02-28T16:55:14.954Z,13.00
2019-02-28T16:57:43.544Z,12.90
2019-02-28T17:00:13.000Z,12.80
2019-02-28T17:02:40.611Z,12.80
2019-02-28T17:05:27.912Z,12.80
2019-02-28T17:07:54.118Z,12.70
2019-02-28T17:10:24.973Z,12.60
2019-02-28T17:12:53.188Z,12.60
2019-02-28T17:15:23.052Z,12.60
2019-02-28T17:17:51.419Z,12.60
2019-02-28T17:20:17.596Z,12.70
2019-02-28T17:22:46.519Z,12.60
2019-02-28T17:25:14.122Z,12.60
2019-02-28T17:27:51.372Z,12.60
2019-02-28T17:30:37.764Z,12.50
2019-02-28T17:33:05.786Z,12.50
2019-02-28T17:35:38.539Z,12.50
2019-02-28T17:38:05.046Z,12.50
2019-02-28T17:40:31.217Z,12.50
2019-02-28T17:42:57.413Z,12.40
2019-02-28T17:45:24.414Z,12.30
2019-02-28T17:47:54.513Z,12.30
2019-02-28T17:50:54.211Z,12.40
2019-02-28T17:53:36.100Z,12.40
2019-02-28T17:56:23.015Z,12.40
2019-02-28T17:59:05.306Z,12.30
2019-02-28T18:02:01.425Z,12.20
2019-02-28T18:04:52.185Z,12.30
2019-02-28T18:07:31.539Z,12.20
2019-02-28T18:10:04.285Z,12.10
2019-02-28T18:12:44.229Z,12.10
2019-02-28T18:15:15.788Z,12.00
2019-02-28T18:18:15.728Z,12.00
2019-02-28T18:21:05.780Z,12.00
2019-02-28T18:23:45.068Z,12.00
2019-02-28T18:26:38.740Z,12.00
2019-02-28T18:29:35.151Z,12.00
2019-02-28T18:32:01.446Z,12.10
2019-02-28T18:34:30.914Z,12.10
2019-02-28T18:37:15.808Z,12.10
2019-02-28T18:39:48.061Z,12.10
2019-02-28T18:42:15.891Z,12.10
2019-02-28T18:44:42.092Z,12.10
2019-02-28T18:47:08.426Z,12.20
2019-02-28T18:49:34.622Z,12.10
2019-02-28T18:52:03.570Z,12.10
2019-02-28T18:54:29.735Z,12.00
2019-02-28T18:56:55.920Z,11.90
2019-02-28T18:59:22.190Z,11.80
2019-02-28T19:01:48.349Z,11.80
2019-02-28T19:04:14.647Z,11.80
2019-02-28T19:06:40.826Z,11.70
2019-02-28T19:09:20.771Z,11.60
2019-02-28T19:11:47.162Z,11.50
2019-02-28T19:14:13.350Z,11.50
2019-02-28T19:16:42.512Z,11.40
2019-02-28T19:19:08.732Z,11.30
2019-02-28T19:21:34.917Z,11.20
2019-02-28T19:24:03.790Z,11.20
2019-02-28T19:26:30.008Z,11.30
2019-02-28T19:28:56.272Z,11.40
2019-02-28T19:31:22.439Z,11.40
2019-02-28T19:33:48.659Z,11.30
2019-02-28T19:36:14.856Z,11.30
2019-02-28T19:38:41.042Z,11.30
2019-02-28T19:41:07.269Z,11.30
2019-02-28T19:43:33.454Z,11.30
2019-02-28T19:45:59.751Z,11.30
2019-02-28T19:48:25.924Z,11.30
2019-02-28T19:50:52.130Z,11.40
2019-02-28T19:53:18.380Z,11.40
2019-02-28T19:55:47.415Z,11.50
2019-02-28T19:58:16.757Z,11.50
2019-02-28T20:01:01.374Z,11.40
2019-02-28T20:03:27.553Z,11.40
2019-02-28T20:05:53.956Z,11.50
2019-02-28T20:08:39.125Z,11.40
2019-02-28T20:11:08.126Z,11.40
2019-02-28T20:13:34.348Z,11.40
2019-02-28T20:16:00.690Z,11.40
2019-02-28T20:18:26.921Z,11.40
2019-02-28T20:20:53.202Z,11.40
2019-02-28T20:23:19.500Z,11.40
2019-02-28T20:26:04.851Z,11.40
2019-02-28T20:28:40.306Z,11.50
2019-02-28T20:31:06.694Z,11.50
2019-02-28T20:33:32.879Z,11.40
2019-02-28T20:35:59.064Z,11.40
2019-02-28T20:38:25.255Z,11.40
2019-02-28T20:40:52.428Z,11.40
2019-02-28T20:43:18.814Z,11.30
2019-02-28T20:45:57.611Z,11.20
2019-02-28T20:48:23.872Z,11.30
2019-02-28T20:50:51.859Z,11.30
2019-02-28T20:53:18.156Z,11.20
2019-02-28T20:55:44.452Z,11.20
2019-02-28T20:58:10.638Z,11.20
2019-02-28T21:00:36.830Z,11.10
2019-02-28T21:03:03.204Z,11.10
2019-02-28T21:05:29.392Z,11.20
2019-02-28T21:07:58.203Z,11.10
2019-02-28T21:10:25.045Z,11.20
2019-02-28T21:12:57.398Z,11.10
2019-02-28T21:15:24.793Z,11.10
2019-02-28T21:17:54.372Z,11.10
2019-02-28T21:20:23.551Z,11.20
2019-02-28T21:23:02.234Z,11.20
2019-02-28T21:25:28.489Z,11.30
2019-02-28T21:27:54.833Z,11.30
2019-02-28T21:30:23.529Z,11.20
2019-02-28T21:33:02.031Z,11.20
2019-02-28T21:35:28.493Z,11.20
2019-02-28T21:37:54.733Z,11.10
2019-02-28T21:40:21.519Z,11.10
2019-02-28T21:42:47.747Z,11.10
2019-02-28T21:45:24.569Z,11.10
2019-02-28T21:48:06.159Z,11.00
2019-02-28T21:50:32.382Z,11.00
2019-02-28T21:52:58.562Z,11.00
2019-02-28T21:55:24.754Z,11.00
2019-02-28T21:57:51.124Z,11.00
2019-02-28T22:00:26.218Z,10.90
2019-02-28T22:02:52.387Z,10.90
2019-02-28T22:05:18.834Z,11.00
2019-02-28T22:07:45.023Z,10.90
2019-02-28T22:10:12.839Z,10.90
2019-02-28T22:12:39.111Z,10.90
2019-02-28T22:15:19.894Z,10.80
2019-02-28T22:17:46.084Z,10.70
2019-02-28T22:20:13.099Z,10.60
2019-02-28T22:22:39.277Z,10.60
2019-02-28T22:25:11.450Z,10.60
2019-02-28T22:27:37.690Z,10.70
2019-02-28T22:30:30.287Z,10.70
2019-02-28T22:32:58.386Z,10.80
2019-02-28T22:35:26.530Z,10.80
2019-02-28T22:37:52.971Z,10.80
2019-02-28T22:40:19.351Z,10.70
2019-02-28T22:43:03.950Z,10.80
2019-02-28T22:45:30.188Z,10.90
2019-02-28T22:47:56.368Z,10.90
2019-02-28T22:50:22.573Z,10.80
2019-02-28T22:52:51.941Z,10.80
2019-02-28T22:55:18.182Z,10.80
2019-02-28T22:57:44.458Z,10.80
2019-02-28T23:00:14.476Z,10.70
2019-02-28T23:02:40.669Z,10.70
2019-02-28T23:05:06.875Z,10.80
2019-02-28T23:07:33.066Z,10.80
2019-02-28T23:09:59.241Z,10.80
2019-02-28T23:12:25.442Z,10.90
2019-02-28T23:14:51.664Z,10.90
2019-02-28T23:17:18.866Z,10.90
2019-02-28T23:19:45.079Z,10.90
2019-02-28T23:22:11.262Z,10.90
2019-02-28T23:24:37.467Z,10.80
2019-02-28T23:27:08.688Z,10.80
2019-02-28T23:29:44.774Z,10.70
2019-02-28T23:32:28.975Z,10.70
2019-02-28T23:34:55.151Z,10.70
2019-02-28T23:37:21.393Z,10.60
2019-02-28T23:39:47.630Z,10.60
2019-02-28T23:42:13.924Z,10.50
2019-02-28T23:44:40.119Z,10.50
2019-02-28T23:47:06.508Z,10.30
2019-02-28T23:49:32.769Z,10.20
2019-02-28T23:51:58.970Z,10.20
2019-02-28T23:54:25.146Z,10.20
2019-02-28T23:56:51.439Z,10.20
2019-02-28T23:59:17.639Z,10.20
